createdAt,value
2023-05-14T00:00:49.640Z,13.13
2023-05-14T00:02:03.921Z,13.10
2023-05-14T00:03:06.887Z,13.06
2023-05-14T00:04:10.122Z,13.05
2023-05-14T00:05:13.033Z,13.05
2023-05-14T00:06:16.167Z,13.04
2023-05-14T00:07:18.942Z,13.04
2023-05-14T00:08:21.733Z,13.04
2023-05-14T00:09:24.761Z,13.03
2023-05-14T00:10:28.161Z,13.02
2023-05-14T00:11:30.932Z,13.00
2023-05-14T00:12:33.954Z,13.00
2023-05-14T00:13:36.885Z,12.99
2023-05-14T00:14:39.672Z,12.97
2023-05-14T00:15:42.614Z,12.97
2023-05-14T00:16:45.369Z,12.96
2023-05-14T00:17:48.208Z,12.95
2023-05-14T00:18:51.128Z,12.95
2023-05-14T00:19:54.019Z,12.95
2023-05-14T00:20:56.725Z,12.92
2023-05-14T00:21:59.495Z,12.91
2023-05-14T00:23:02.232Z,12.88
2023-05-14T00:24:05.474Z,12.85
2023-05-14T00:25:08.969Z,12.84
2023-05-14T00:26:11.772Z,12.84
2023-05-14T00:27:14.936Z,12.82
2023-05-14T00:28:17.724Z,12.80
2023-05-14T00:29:20.689Z,12.78
2023-05-14T00:30:24.061Z,12.77
2023-05-14T00:31:27.092Z,12.74
2023-05-14T00:32:29.946Z,12.73
2023-05-14T00:33:33.066Z,12.72
2023-05-14T00:34:36.683Z,12.70
2023-05-14T00:35:39.627Z,12.66
2023-05-14T00:36:42.413Z,12.64
2023-05-14T00:37:45.265Z,12.62
2023-05-14T00:38:48.017Z,12.60
2023-05-14T00:39:50.941Z,12.59
2023-05-14T00:40:53.981Z,12.57
2023-05-14T00:41:56.777Z,12.56
2023-05-14T00:42:59.901Z,12.55
2023-05-14T00:44:02.621Z,12.54
2023-05-14T00:45:06.793Z,12.54
2023-05-14T00:46:09.759Z,12.52
2023-05-14T00:47:12.967Z,12.52
2023-05-14T00:48:15.860Z,12.51
2023-05-14T00:49:19.138Z,12.50
2023-05-14T00:50:22.875Z,12.51
2023-05-14T00:51:25.970Z,12.51
2023-05-14T00:52:28.913Z,12.51
2023-05-14T00:53:31.724Z,12.51
2023-05-14T00:54:35.336Z,12.50
2023-05-14T00:55:39.003Z,12.49
2023-05-14T00:56:45.064Z,12.49
2023-05-14T00:57:49.230Z,12.48
2023-05-14T00:58:52.056Z,12.47
2023-05-14T00:59:55.424Z,12.47
2023-05-14T01:00:58.230Z,12.47
2023-05-14T01:02:01.548Z,12.47
2023-05-14T01:03:05.419Z,12.47
2023-05-14T01:04:09.980Z,12.48
2023-05-14T01:05:13.044Z,12.48
2023-05-14T01:06:23.386Z,12.48
2023-05-14T01:07:59.535Z,12.48
2023-05-14T01:09:13.073Z,12.46
2023-05-14T01:10:24.492Z,12.43
2023-05-14T01:11:41.299Z,12.43
2023-05-14T01:12:48.760Z,12.43
2023-05-14T01:14:06.616Z,12.43
2023-05-14T01:15:13.896Z,12.42
2023-05-14T01:16:20.040Z,12.42
2023-05-14T01:17:27.125Z,12.41
2023-05-14T01:18:32.554Z,12.40
2023-05-14T01:19:45.525Z,12.39
2023-05-14T01:20:52.238Z,12.37
2023-05-14T01:21:55.074Z,12.37
2023-05-14T01:22:58.165Z,12.36
2023-05-14T01:24:00.952Z,12.33
2023-05-14T01:25:05.566Z,12.31
2023-05-14T01:26:08.515Z,12.30
2023-05-14T01:27:11.590Z,12.26
2023-05-14T01:28:24.510Z,12.21
2023-05-14T01:29:29.081Z,12.18
2023-05-14T01:32:11.042Z,12.13
2023-05-14T01:33:16.379Z,12.12
2023-05-14T01:34:22.900Z,12.12
2023-05-14T01:35:28.434Z,12.12
2023-05-14T01:36:31.798Z,12.12
2023-05-14T01:37:36.468Z,12.14
2023-05-14T01:38:39.828Z,12.14
2023-05-14T01:39:43.188Z,12.12
2023-05-14T01:40:47.570Z,12.11
2023-05-14T01:41:52.534Z,12.09
2023-05-14T01:42:56.631Z,12.10
2023-05-14T01:43:59.492Z,12.09
2023-05-14T01:45:02.752Z,12.09
2023-05-14T01:46:05.636Z,12.11
2023-05-14T01:47:08.442Z,12.13
2023-05-14T01:48:11.394Z,12.14
2023-05-14T01:49:14.233Z,12.16
2023-05-14T01:50:17.660Z,12.18
2023-05-14T01:51:20.595Z,12.19
2023-05-14T01:52:23.509Z,12.19
2023-05-14T01:53:26.446Z,12.20
2023-05-14T01:54:29.179Z,12.20
2023-05-14T01:55:31.937Z,12.20
2023-05-14T01:56:34.713Z,12.20
2023-05-14T01:57:37.473Z,12.20
2023-05-14T01:58:40.333Z,12.19
2023-05-14T01:59:43.170Z,12.19
2023-05-14T02:00:46.000Z,12.20
2023-05-14T02:01:48.810Z,12.21
2023-05-14T02:02:51.724Z,12.21
2023-05-14T02:03:54.598Z,12.22
2023-05-14T02:04:58.079Z,12.22
2023-05-14T02:06:00.900Z,12.24
2023-05-14T02:07:04.014Z,12.25
2023-05-14T02:08:06.873Z,12.24
2023-05-14T02:09:09.720Z,12.24
2023-05-14T02:10:12.687Z,12.24
2023-05-14T02:11:15.586Z,12.24
2023-05-14T02:12:18.379Z,12.25
2023-05-14T02:13:21.422Z,12.25
2023-05-14T02:14:24.289Z,12.24
2023-05-14T02:15:27.155Z,12.23
2023-05-14T02:16:30.240Z,12.23
2023-05-14T02:17:33.125Z,12.21
2023-05-14T02:18:35.950Z,12.19
2023-05-14T02:19:38.801Z,12.19
2023-05-14T02:20:41.623Z,12.17
2023-05-14T02:21:44.566Z,12.15
2023-05-14T02:22:48.312Z,12.14
2023-05-14T02:23:51.227Z,12.12
2023-05-14T02:24:54.076Z,12.11
2023-05-14T02:25:56.809Z,12.11
2023-05-14T02:27:01.078Z,12.13
2023-05-14T02:28:04.092Z,12.13
2023-05-14T02:29:06.855Z,12.14
2023-05-14T02:30:10.659Z,12.13
2023-05-14T02:31:14.950Z,12.13
2023-05-14T02:32:18.034Z,12.14
2023-05-14T02:33:21.412Z,12.14
2023-05-14T02:34:24.613Z,12.14
2023-05-14T02:35:27.488Z,12.14
2023-05-14T02:36:30.716Z,12.14
2023-05-14T02:37:34.802Z,12.14
2023-05-14T02:38:37.659Z,12.14
2023-05-14T02:39:40.475Z,12.14
2023-05-14T02:40:43.234Z,12.14
2023-05-14T02:41:46.060Z,12.13
2023-05-14T02:42:49.006Z,12.11
2023-05-14T02:43:52.672Z,12.09
2023-05-14T02:44:55.739Z,12.07
2023-05-14T02:45:58.600Z,12.07
2023-05-14T02:47:01.510Z,12.06
2023-05-14T02:48:04.774Z,12.07
2023-05-14T02:49:07.736Z,12.06
2023-05-14T02:50:11.218Z,12.05
2023-05-14T02:51:14.035Z,12.04
2023-05-14T02:52:16.783Z,12.03
2023-05-14T02:53:19.601Z,12.02
2023-05-14T02:54:22.439Z,12.00
2023-05-14T02:55:26.498Z,12.00
2023-05-14T02:56:29.301Z,11.98
2023-05-14T02:57:32.075Z,11.96
2023-05-14T02:58:34.879Z,11.96
2023-05-14T02:59:38.042Z,11.95
2023-05-14T03:00:41.560Z,11.95
2023-05-14T03:01:45.023Z,11.95
2023-05-14T03:02:48.328Z,11.95
2023-05-14T03:03:51.766Z,11.96
2023-05-14T03:04:55.189Z,11.95
2023-05-14T03:05:57.963Z,11.95
2023-05-14T03:07:00.938Z,11.95
2023-05-14T03:08:03.795Z,11.95
2023-05-14T03:09:07.500Z,11.95
2023-05-14T03:10:10.735Z,11.93
2023-05-14T03:11:13.544Z,11.91
2023-05-14T03:12:16.466Z,11.89
2023-05-14T03:13:20.735Z,11.88
2023-05-14T03:14:23.585Z,11.88
2023-05-14T03:15:26.480Z,11.87
2023-05-14T03:16:29.463Z,11.87
2023-05-14T03:17:32.592Z,11.87
2023-05-14T03:18:36.676Z,11.86
2023-05-14T03:19:39.571Z,11.84
2023-05-14T03:20:43.436Z,11.82
2023-05-14T03:21:46.858Z,11.81
2023-05-14T03:22:49.746Z,11.82
2023-05-14T03:23:53.626Z,11.81
2023-05-14T03:24:56.408Z,11.80
2023-05-14T03:25:59.198Z,11.81
2023-05-14T03:27:01.998Z,11.81
2023-05-14T03:28:05.024Z,11.81
2023-05-14T03:29:07.849Z,11.78
2023-05-14T03:30:11.800Z,11.78
2023-05-14T03:31:16.414Z,11.78
2023-05-14T03:32:19.565Z,11.80
2023-05-14T03:33:22.853Z,11.81
2023-05-14T03:34:25.780Z,11.83
2023-05-14T03:35:28.534Z,11.83
2023-05-14T03:36:32.048Z,11.83
2023-05-14T03:37:34.893Z,11.81
2023-05-14T03:38:37.741Z,11.80
2023-05-14T03:39:40.557Z,11.82
2023-05-14T03:40:44.921Z,11.84
2023-05-14T03:41:48.281Z,11.87
2023-05-14T03:42:51.091Z,11.88
2023-05-14T03:43:54.122Z,11.90
2023-05-14T03:44:56.885Z,11.93
2023-05-14T03:46:00.003Z,11.93
2023-05-14T03:47:03.288Z,11.95
2023-05-14T03:48:06.776Z,11.96
2023-05-14T03:49:09.795Z,11.95
2023-05-14T03:50:12.613Z,11.96
2023-05-14T03:51:15.578Z,11.95
2023-05-14T03:52:18.424Z,11.96
2023-05-14T03:53:21.290Z,11.95
2023-05-14T03:54:24.189Z,11.94
2023-05-14T03:55:26.995Z,11.94
2023-05-14T03:56:29.742Z,11.95
2023-05-14T03:57:32.529Z,11.96
2023-05-14T03:58:35.362Z,11.97
2023-05-14T03:59:38.310Z,11.99
2023-05-14T04:00:44.208Z,12.01
2023-05-14T04:01:47.119Z,12.04
2023-05-14T04:02:50.057Z,12.06
2023-05-14T04:03:53.436Z,12.09
2023-05-14T04:04:56.666Z,12.12
2023-05-14T04:05:59.524Z,12.14
2023-05-14T04:07:02.398Z,12.17
2023-05-14T04:08:05.877Z,12.18
2023-05-14T04:09:10.687Z,12.19
2023-05-14T04:10:14.023Z,12.19
2023-05-14T04:11:16.898Z,12.21
2023-05-14T04:12:19.728Z,12.22
2023-05-14T04:13:22.867Z,12.22
2023-05-14T04:14:25.583Z,12.24
2023-05-14T04:15:28.706Z,12.25
2023-05-14T04:16:31.594Z,12.28
2023-05-14T04:17:35.096Z,12.30
2023-05-14T04:18:38.055Z,12.32
2023-05-14T04:19:40.841Z,12.34
2023-05-14T04:20:43.685Z,12.35
2023-05-14T04:21:46.562Z,12.38
2023-05-14T04:22:49.285Z,12.41
2023-05-14T04:23:52.036Z,12.44
2023-05-14T04:24:54.731Z,12.48
2023-05-14T04:25:58.360Z,12.51
2023-05-14T04:27:01.225Z,12.57
2023-05-14T04:28:04.091Z,12.61
2023-05-14T04:29:06.865Z,12.63
2023-05-14T04:30:10.191Z,12.67
2023-05-14T04:31:13.099Z,12.70
2023-05-14T04:32:15.998Z,12.74
2023-05-14T04:33:18.783Z,12.77
2023-05-14T04:34:21.754Z,12.81
2023-05-14T04:35:25.308Z,12.86
2023-05-14T04:36:28.116Z,12.91
2023-05-14T04:37:31.699Z,12.96
2023-05-14T04:38:34.707Z,13.00
2023-05-14T04:39:37.939Z,13.05
2023-05-14T04:40:43.858Z,13.11
2023-05-14T04:41:46.641Z,13.17
2023-05-14T04:42:49.402Z,13.20
2023-05-14T04:43:56.632Z,13.24
2023-05-14T04:44:59.473Z,13.29
2023-05-14T04:46:02.443Z,13.34
2023-05-14T04:47:06.885Z,13.39
2023-05-14T04:48:09.730Z,13.44
2023-05-14T04:49:12.761Z,13.49
2023-05-14T04:50:15.575Z,13.54
2023-05-14T04:51:18.510Z,13.59
2023-05-14T04:52:21.343Z,13.65
2023-05-14T04:53:24.460Z,13.71
2023-05-14T04:54:27.329Z,13.78
2023-05-14T04:55:30.350Z,13.83
2023-05-14T04:56:33.156Z,13.88
2023-05-14T04:57:35.869Z,13.92
2023-05-14T04:58:38.605Z,13.96
2023-05-14T04:59:41.436Z,13.98
2023-05-14T05:00:44.506Z,14.03
2023-05-14T05:01:47.461Z,14.09
2023-05-14T05:02:50.729Z,14.15
2023-05-14T05:03:53.579Z,14.20
2023-05-14T05:04:56.315Z,14.24
2023-05-14T05:05:59.315Z,14.29
2023-05-14T05:07:02.087Z,14.34
2023-05-14T05:08:04.847Z,14.38
2023-05-14T05:09:08.814Z,14.42
2023-05-14T05:10:11.811Z,14.45
2023-05-14T05:11:14.777Z,14.48
2023-05-14T05:12:17.571Z,14.51
2023-05-14T05:13:20.363Z,14.55
2023-05-14T05:14:23.169Z,14.61
2023-05-14T05:15:26.741Z,14.66
2023-05-14T05:16:29.912Z,14.72
2023-05-14T05:17:32.989Z,14.76
2023-05-14T05:18:35.924Z,14.82
2023-05-14T05:19:43.805Z,14.87
2023-05-14T05:20:47.412Z,14.95
2023-05-14T05:21:51.176Z,15.01
2023-05-14T05:22:54.029Z,15.08
2023-05-14T05:23:56.851Z,15.15
2023-05-14T05:24:59.906Z,15.21
2023-05-14T05:26:02.620Z,15.27
2023-05-14T05:27:06.107Z,15.33
2023-05-14T05:28:08.952Z,15.40
2023-05-14T05:29:11.872Z,15.46
2023-05-14T05:30:14.647Z,15.53
2023-05-14T05:31:19.685Z,15.58
2023-05-14T05:32:23.237Z,15.63
2023-05-14T05:33:26.080Z,15.67
2023-05-14T05:34:28.915Z,15.69
2023-05-14T05:35:31.615Z,15.73
2023-05-14T05:36:34.489Z,15.78
2023-05-14T05:37:37.216Z,15.85
2023-05-14T05:38:39.970Z,15.93
2023-05-14T05:39:42.830Z,16.02
2023-05-14T05:40:45.549Z,16.11
2023-05-14T05:41:48.360Z,16.17
2023-05-14T05:42:51.152Z,16.23
2023-05-14T05:43:53.994Z,16.27
2023-05-14T05:44:56.849Z,16.30
2023-05-14T05:46:01.620Z,16.33
2023-05-14T05:47:04.839Z,16.37
2023-05-14T05:48:07.828Z,16.41
2023-05-14T05:49:10.620Z,16.46
2023-05-14T05:50:13.556Z,16.51
2023-05-14T05:51:16.439Z,16.58
2023-05-14T05:52:19.511Z,16.65
2023-05-14T05:53:22.556Z,16.70
2023-05-14T05:54:25.712Z,16.75
2023-05-14T05:55:29.672Z,16.79
2023-05-14T05:56:32.497Z,16.85
2023-05-14T05:57:35.341Z,16.91
2023-05-14T05:58:38.787Z,16.95
2023-05-14T05:59:41.577Z,16.96
2023-05-14T06:00:44.652Z,16.98
2023-05-14T06:01:48.211Z,17.00
2023-05-14T06:02:51.117Z,17.00
2023-05-14T06:03:53.897Z,17.03
2023-05-14T06:04:56.766Z,17.07
2023-05-14T06:05:59.675Z,17.12
2023-05-14T06:07:02.516Z,17.16
2023-05-14T06:08:05.795Z,17.20
2023-05-14T06:09:09.227Z,17.25
2023-05-14T06:10:12.022Z,17.32
2023-05-14T06:11:15.415Z,17.37
2023-05-14T06:12:18.208Z,17.41
2023-05-14T06:13:20.990Z,17.46
2023-05-14T06:14:23.770Z,17.49
2023-05-14T06:15:26.607Z,17.50
2023-05-14T06:16:31.664Z,17.54
2023-05-14T06:17:34.549Z,17.59
2023-05-14T06:18:37.447Z,17.62
2023-05-14T06:19:40.372Z,17.68
2023-05-14T06:20:43.287Z,17.77
2023-05-14T06:21:46.125Z,17.83
2023-05-14T06:22:48.976Z,17.88
2023-05-14T06:23:51.732Z,17.92
2023-05-14T06:24:54.740Z,17.98
2023-05-14T06:25:57.609Z,18.04
2023-05-14T06:27:00.380Z,18.08
2023-05-14T06:28:03.328Z,18.12
2023-05-14T06:29:06.178Z,18.14
2023-05-14T06:30:10.443Z,18.17
2023-05-14T06:31:13.791Z,18.18
2023-05-14T06:32:16.924Z,18.20
2023-05-14T06:33:23.415Z,18.20
2023-05-14T06:34:26.347Z,18.21
2023-05-14T06:35:29.363Z,18.21
2023-05-14T06:36:32.185Z,18.23
2023-05-14T06:37:34.956Z,18.27
2023-05-14T06:38:37.893Z,18.31
2023-05-14T06:39:46.517Z,18.33
2023-05-14T06:40:49.390Z,18.35
2023-05-14T06:41:52.170Z,18.38
2023-05-14T06:42:55.079Z,18.42
2023-05-14T06:43:57.873Z,18.43
2023-05-14T06:45:00.759Z,18.44
2023-05-14T06:46:03.617Z,18.46
2023-05-14T06:47:08.619Z,18.48
2023-05-14T06:48:11.774Z,18.50
2023-05-14T06:49:14.895Z,18.52
2023-05-14T06:50:18.065Z,18.56
2023-05-14T06:51:20.968Z,18.62
2023-05-14T06:52:23.772Z,18.65
2023-05-14T06:53:26.730Z,18.65
2023-05-14T06:54:30.159Z,18.65
2023-05-14T06:55:32.989Z,18.65
2023-05-14T06:56:35.810Z,18.69
2023-05-14T06:57:40.644Z,18.72
2023-05-14T06:58:43.752Z,18.72
2023-05-14T06:59:46.629Z,18.76
2023-05-14T07:00:49.525Z,18.79
2023-05-14T07:01:52.401Z,18.82
2023-05-14T07:02:57.671Z,18.85
2023-05-14T07:04:00.738Z,18.89
2023-05-14T07:05:03.630Z,18.93
2023-05-14T07:06:06.851Z,18.94
2023-05-14T07:07:13.527Z,18.95
2023-05-14T07:08:16.315Z,18.98
2023-05-14T07:09:19.123Z,19.02
2023-05-14T07:10:22.376Z,19.07
2023-05-14T07:11:25.529Z,19.11
2023-05-14T07:12:28.343Z,19.15
2023-05-14T07:13:31.166Z,19.21
2023-05-14T07:14:34.394Z,19.27
2023-05-14T07:15:37.214Z,19.30
2023-05-14T07:16:41.678Z,19.33
2023-05-14T07:17:45.214Z,19.32
2023-05-14T07:18:48.053Z,19.29
2023-05-14T07:19:51.374Z,19.26
2023-05-14T07:20:54.115Z,19.26
2023-05-14T07:21:57.899Z,19.27
2023-05-14T07:23:00.797Z,19.27
2023-05-14T07:24:04.036Z,19.27
2023-05-14T07:25:07.769Z,19.28
2023-05-14T07:26:10.642Z,19.29
2023-05-14T07:27:13.442Z,19.31
2023-05-14T07:28:16.273Z,19.31
2023-05-14T07:29:19.005Z,19.32
2023-05-14T07:30:21.873Z,19.33
2023-05-14T07:31:25.054Z,19.36
2023-05-14T07:32:27.895Z,19.38
2023-05-14T07:33:30.982Z,19.42
2023-05-14T07:34:33.903Z,19.44
2023-05-14T07:35:36.739Z,19.48
2023-05-14T07:36:39.886Z,19.53
2023-05-14T07:37:42.967Z,19.54
2023-05-14T07:38:45.982Z,19.58
2023-05-14T07:39:49.283Z,19.61
2023-05-14T07:40:52.300Z,19.66
2023-05-14T07:41:55.374Z,19.67
2023-05-14T07:42:58.192Z,19.66
2023-05-14T07:44:01.277Z,19.65
2023-05-14T07:45:04.765Z,19.61
2023-05-14T07:46:07.653Z,19.60
2023-05-14T07:47:11.072Z,19.63
2023-05-14T07:48:14.457Z,19.67
2023-05-14T07:49:17.457Z,19.71
2023-05-14T07:50:20.868Z,19.73
2023-05-14T07:51:24.121Z,19.75
2023-05-14T07:52:26.965Z,19.74
2023-05-14T07:53:29.813Z,19.70
2023-05-14T07:54:32.695Z,19.68
2023-05-14T07:55:35.528Z,19.66
2023-05-14T07:56:38.305Z,19.67
2023-05-14T07:57:41.267Z,19.70
2023-05-14T07:58:44.098Z,19.70
2023-05-14T07:59:48.457Z,19.65
2023-05-14T08:00:51.583Z,19.63
2023-05-14T08:01:54.536Z,19.60
2023-05-14T08:02:57.635Z,19.58
2023-05-14T08:04:01.075Z,19.55
2023-05-14T08:05:04.703Z,19.50
2023-05-14T08:06:07.587Z,19.44
2023-05-14T08:07:11.224Z,19.38
2023-05-14T08:08:13.989Z,19.30
2023-05-14T08:09:17.053Z,19.22
2023-05-14T08:10:19.846Z,19.18
2023-05-14T08:11:22.934Z,19.14
2023-05-14T08:12:26.730Z,19.09
2023-05-14T08:13:29.519Z,19.05
2023-05-14T08:14:32.472Z,19.05
2023-05-14T08:15:35.553Z,19.06
2023-05-14T08:16:38.871Z,19.10
2023-05-14T08:17:41.833Z,19.16
2023-05-14T08:18:44.704Z,19.24
2023-05-14T08:19:47.738Z,19.32
2023-05-14T08:20:51.377Z,19.38
2023-05-14T08:21:54.570Z,19.40
2023-05-14T08:23:00.434Z,19.43
2023-05-14T08:24:03.624Z,19.46
2023-05-14T08:25:07.770Z,19.48
2023-05-14T08:26:11.141Z,19.49
2023-05-14T08:27:13.973Z,19.45
2023-05-14T08:28:16.734Z,19.40
2023-05-14T08:29:19.587Z,19.38
2023-05-14T08:30:23.040Z,19.35
2023-05-14T08:31:26.180Z,19.32
2023-05-14T08:32:29.671Z,19.23
2023-05-14T08:33:32.593Z,19.14
2023-05-14T08:34:35.361Z,19.03
2023-05-14T08:35:38.147Z,18.93
2023-05-14T08:36:40.877Z,18.87
2023-05-14T08:37:43.691Z,18.87
2023-05-14T08:38:46.400Z,18.90
2023-05-14T08:39:49.184Z,18.94
2023-05-14T08:40:58.793Z,18.95
2023-05-14T08:42:06.230Z,18.91
2023-05-14T08:43:11.649Z,18.89
2023-05-14T08:44:18.726Z,18.88
2023-05-14T08:45:26.044Z,18.90
2023-05-14T08:46:31.738Z,18.94
2023-05-14T08:47:34.851Z,18.98
2023-05-14T08:48:40.718Z,19.00
2023-05-14T08:49:47.225Z,19.02
2023-05-14T08:50:50.336Z,19.05
2023-05-14T08:51:53.476Z,19.07
2023-05-14T08:52:56.261Z,19.09
2023-05-14T08:54:02.233Z,19.12
2023-05-14T08:55:06.591Z,19.16
2023-05-14T08:56:09.823Z,19.21
2023-05-14T08:57:13.134Z,19.29
2023-05-14T08:58:15.987Z,19.37
2023-05-14T08:59:19.309Z,19.48
2023-05-14T09:00:23.102Z,19.56
2023-05-14T09:01:26.305Z,19.61
2023-05-14T09:02:31.336Z,19.66
2023-05-14T09:03:35.975Z,19.68
2023-05-14T09:04:39.813Z,19.73
2023-05-14T09:05:43.092Z,19.78
2023-05-14T09:06:49.445Z,19.81
2023-05-14T09:07:52.369Z,19.82
2023-05-14T09:08:56.138Z,19.87
2023-05-14T09:09:59.581Z,19.96
2023-05-14T09:11:02.863Z,20.04
2023-05-14T09:12:06.299Z,20.09
2023-05-14T09:13:10.225Z,20.13
2023-05-14T09:14:13.088Z,20.15
2023-05-14T09:15:16.142Z,20.18
2023-05-14T09:16:20.688Z,20.17
2023-05-14T09:17:26.819Z,20.16
2023-05-14T09:18:29.736Z,20.19
2023-05-14T09:19:32.862Z,20.26
2023-05-14T09:20:35.942Z,20.32
2023-05-14T09:21:38.748Z,20.40
2023-05-14T09:22:42.037Z,20.41
2023-05-14T09:23:45.376Z,20.47
2023-05-14T09:25:02.741Z,20.57
2023-05-14T09:26:06.053Z,20.66
2023-05-14T09:27:10.565Z,20.73
2023-05-14T09:28:17.281Z,20.78
2023-05-14T09:29:20.337Z,20.84
2023-05-14T09:30:24.905Z,20.86
2023-05-14T09:31:32.118Z,20.83
2023-05-14T09:32:40.322Z,20.82
2023-05-14T09:33:43.819Z,20.79
2023-05-14T09:34:46.583Z,20.76
2023-05-14T09:35:49.363Z,20.73
2023-05-14T09:37:03.649Z,20.69
2023-05-14T09:38:06.444Z,20.65
2023-05-14T09:39:09.735Z,20.65
2023-05-14T09:40:13.932Z,20.64
2023-05-14T09:41:17.007Z,20.65
2023-05-14T09:42:20.114Z,20.59
2023-05-14T09:43:22.900Z,20.52
2023-05-14T09:44:26.201Z,20.48
2023-05-14T09:45:29.352Z,20.44
2023-05-14T09:46:32.189Z,20.40
2023-05-14T09:47:36.042Z,20.39
2023-05-14T09:48:38.978Z,20.34
2023-05-14T09:49:41.952Z,20.34
2023-05-14T09:50:46.606Z,20.41
2023-05-14T09:51:50.411Z,20.49
2023-05-14T09:52:55.746Z,20.58
2023-05-14T09:53:58.821Z,20.64
2023-05-14T09:55:02.404Z,20.64
2023-05-14T09:56:05.552Z,20.61
2023-05-14T09:57:08.436Z,20.56
2023-05-14T09:58:11.660Z,20.49
2023-05-14T09:59:14.994Z,20.41
2023-05-14T10:00:18.090Z,20.36
2023-05-14T10:01:22.470Z,20.35
2023-05-14T10:02:27.401Z,20.33
2023-05-14T10:03:30.594Z,20.36
2023-05-14T10:04:34.200Z,20.40
2023-05-14T10:05:39.998Z,20.44
2023-05-14T10:06:46.547Z,20.41
2023-05-14T10:07:52.294Z,20.37
2023-05-14T10:08:57.032Z,20.31
2023-05-14T10:10:03.099Z,20.24
2023-05-14T10:11:13.255Z,20.21
2023-05-14T10:12:20.682Z,20.24
2023-05-14T10:13:39.248Z,20.25
2023-05-14T10:14:49.834Z,20.29
2023-05-14T10:16:00.684Z,20.30
2023-05-14T10:17:06.016Z,20.33
2023-05-14T10:18:12.479Z,20.36
2023-05-14T10:19:17.877Z,20.40
2023-05-14T10:20:22.847Z,20.43
2023-05-14T10:21:28.616Z,20.49
2023-05-14T10:22:34.953Z,20.59
2023-05-14T10:23:38.646Z,20.68
2023-05-14T10:24:41.972Z,20.68
2023-05-14T10:25:45.615Z,20.69
2023-05-14T10:26:48.969Z,20.73
2023-05-14T10:27:51.863Z,20.78
2023-05-14T10:28:55.999Z,20.76
2023-05-14T10:29:58.772Z,20.66
2023-05-14T10:31:01.837Z,20.60
2023-05-14T10:32:06.807Z,20.49
2023-05-14T10:33:13.284Z,20.40
2023-05-14T10:34:37.959Z,20.28
2023-05-14T10:36:00.810Z,20.09
2023-05-14T10:37:16.369Z,19.96
2023-05-14T10:38:23.271Z,19.91
2023-05-14T10:39:47.587Z,19.87
2023-05-14T10:40:53.500Z,19.82
2023-05-14T10:41:56.982Z,19.82
2023-05-14T10:42:59.874Z,19.88
2023-05-14T10:44:09.493Z,19.97
2023-05-14T10:45:14.841Z,19.99
2023-05-14T10:46:18.015Z,19.97
2023-05-14T10:47:21.974Z,19.94
2023-05-14T10:48:26.004Z,19.87
2023-05-14T10:49:42.424Z,19.78
2023-05-14T10:50:48.284Z,19.72
2023-05-14T10:51:53.444Z,19.70
2023-05-14T10:52:57.135Z,19.70
2023-05-14T10:54:01.643Z,19.70
2023-05-14T10:55:10.235Z,19.70
2023-05-14T10:56:14.608Z,19.65
2023-05-14T10:57:19.006Z,19.61
2023-05-14T10:58:22.341Z,19.61
2023-05-14T10:59:28.448Z,19.61
2023-05-14T11:00:34.145Z,19.62
2023-05-14T11:01:36.954Z,19.61
2023-05-14T11:02:41.255Z,19.62
2023-05-14T11:03:46.213Z,19.65
2023-05-14T11:04:59.443Z,19.65
2023-05-14T11:06:03.736Z,19.64
2023-05-14T11:07:06.695Z,19.65
2023-05-14T11:08:10.548Z,19.73
2023-05-14T11:09:17.557Z,19.85
2023-05-14T11:10:22.054Z,19.99
2023-05-14T11:11:26.222Z,20.04
2023-05-14T11:12:29.639Z,20.01
2023-05-14T11:13:34.418Z,19.97
2023-05-14T11:14:37.217Z,19.94
2023-05-14T11:15:46.997Z,19.89
2023-05-14T11:16:50.470Z,19.84
2023-05-14T11:17:54.405Z,19.79
2023-05-14T11:19:04.864Z,19.71
2023-05-14T11:20:09.789Z,19.68
2023-05-14T11:21:13.097Z,19.67
2023-05-14T11:22:15.943Z,19.74
2023-05-14T11:23:18.872Z,19.79
2023-05-14T11:24:21.637Z,19.81
2023-05-14T11:25:25.899Z,19.84
2023-05-14T11:26:28.797Z,19.95
2023-05-14T11:27:34.395Z,20.01
2023-05-14T11:28:38.778Z,20.05
2023-05-14T11:29:46.525Z,20.09
2023-05-14T11:30:50.722Z,20.13
2023-05-14T11:31:54.490Z,20.17
2023-05-14T11:32:58.758Z,20.26
2023-05-14T11:34:05.026Z,20.40
2023-05-14T11:35:08.397Z,20.59
2023-05-14T11:36:12.564Z,20.84
2023-05-14T11:37:16.546Z,21.01
2023-05-14T11:38:21.180Z,21.20
2023-05-14T11:39:23.972Z,21.48
2023-05-14T11:40:26.955Z,21.79
2023-05-14T11:41:31.061Z,22.04
2023-05-14T11:42:33.841Z,22.12
2023-05-14T11:43:36.751Z,21.93
2023-05-14T11:44:39.632Z,21.77
2023-05-14T11:45:42.444Z,21.89
2023-05-14T11:46:54.692Z,22.15
2023-05-14T11:47:57.572Z,22.40
2023-05-14T11:49:00.369Z,22.54
2023-05-14T11:50:03.733Z,22.67
2023-05-14T11:51:06.877Z,22.70
2023-05-14T11:52:11.744Z,22.73
2023-05-14T11:53:25.808Z,22.85
2023-05-14T11:54:29.391Z,23.05
2023-05-14T11:55:35.984Z,23.25
2023-05-14T11:56:38.762Z,23.41
2023-05-14T11:57:42.187Z,23.38
2023-05-14T11:58:55.812Z,23.25
2023-05-14T11:59:58.710Z,23.03
2023-05-14T12:01:01.690Z,22.83
2023-05-14T12:02:05.627Z,22.66
2023-05-14T12:03:10.172Z,22.57
2023-05-14T12:04:14.246Z,22.55
2023-05-14T12:05:17.203Z,22.50
2023-05-14T12:06:19.959Z,22.39
2023-05-14T12:07:22.802Z,22.28
2023-05-14T12:08:30.680Z,22.20
2023-05-14T12:09:36.849Z,22.33
2023-05-14T12:10:42.773Z,22.63
2023-05-14T12:11:46.606Z,23.00
2023-05-14T12:12:49.860Z,23.43
2023-05-14T12:13:53.140Z,23.80
2023-05-14T12:14:55.995Z,24.13
2023-05-14T12:16:02.257Z,24.35
2023-05-14T12:17:15.867Z,24.39
2023-05-14T12:18:24.724Z,24.25
2023-05-14T12:19:30.359Z,24.08
2023-05-14T12:20:33.184Z,23.93
2023-05-14T12:21:36.635Z,23.67
2023-05-14T12:22:42.037Z,23.33
2023-05-14T12:23:44.779Z,23.01
2023-05-14T12:24:58.095Z,22.79
2023-05-14T12:26:08.981Z,22.65
2023-05-14T12:27:12.041Z,22.56
2023-05-14T12:28:16.118Z,22.56
2023-05-14T12:29:19.538Z,22.69
2023-05-14T12:30:22.362Z,22.99
2023-05-14T12:31:32.377Z,23.40
2023-05-14T12:32:35.736Z,23.91
2023-05-14T12:33:38.871Z,24.30
2023-05-14T12:34:41.644Z,24.58
2023-05-14T12:35:44.361Z,24.79
2023-05-14T12:36:47.220Z,24.96
2023-05-14T12:37:50.012Z,25.17
2023-05-14T12:39:01.509Z,25.38
2023-05-14T12:40:09.110Z,25.56
2023-05-14T12:41:11.965Z,25.69
2023-05-14T12:42:15.575Z,25.90
2023-05-14T12:43:18.301Z,26.10
2023-05-14T12:44:22.599Z,26.37
2023-05-14T12:45:25.699Z,26.63
2023-05-14T12:46:28.829Z,26.66
2023-05-14T12:47:32.323Z,26.54
2023-05-14T12:48:35.168Z,26.33
2023-05-14T12:49:38.194Z,26.06
2023-05-14T12:50:40.985Z,25.84
2023-05-14T12:51:44.050Z,25.63
2023-05-14T12:52:46.876Z,25.46
2023-05-14T12:53:51.558Z,25.24
2023-05-14T12:54:54.465Z,25.06
2023-05-14T12:55:57.204Z,24.97
2023-05-14T12:57:00.268Z,25.00
2023-05-14T12:58:03.104Z,25.25
2023-05-14T12:59:05.913Z,25.62
2023-05-14T13:00:14.226Z,25.91
2023-05-14T13:01:17.379Z,26.06
2023-05-14T13:02:20.657Z,26.01
2023-05-14T13:03:24.006Z,26.01
2023-05-14T13:04:26.875Z,26.04
2023-05-14T13:05:29.770Z,26.15
2023-05-14T13:06:32.767Z,26.32
2023-05-14T13:07:36.084Z,26.53
2023-05-14T13:08:39.695Z,26.81
2023-05-14T13:09:43.743Z,27.10
2023-05-14T13:10:47.081Z,27.41
2023-05-14T13:11:49.915Z,27.59
2023-05-14T13:12:52.715Z,27.56
2023-05-14T13:13:55.804Z,27.59
2023-05-14T13:14:58.536Z,27.92
2023-05-14T13:16:01.410Z,28.37
2023-05-14T13:17:05.283Z,28.59
2023-05-14T13:18:08.425Z,28.73
2023-05-14T13:19:11.435Z,28.83
2023-05-14T13:20:15.916Z,28.86
2023-05-14T13:21:18.729Z,28.94
2023-05-14T13:22:21.501Z,29.13
2023-05-14T13:23:24.315Z,29.24
2023-05-14T13:24:27.097Z,29.15
2023-05-14T13:25:29.827Z,28.99
2023-05-14T13:26:32.819Z,29.01
2023-05-14T13:27:38.455Z,28.98
2023-05-14T13:28:41.499Z,28.82
2023-05-14T13:29:44.294Z,28.73
2023-05-14T13:31:05.187Z,28.83
2023-05-14T13:32:08.496Z,29.04
2023-05-14T13:33:11.795Z,29.22
2023-05-14T13:34:14.851Z,29.43
2023-05-14T13:35:17.794Z,29.59
2023-05-14T13:36:20.821Z,29.65
2023-05-14T13:37:24.986Z,29.69
2023-05-14T13:38:27.880Z,29.93
2023-05-14T13:39:30.935Z,30.02
2023-05-14T13:40:33.859Z,29.74
2023-05-14T13:41:37.853Z,29.43
2023-05-14T13:42:40.793Z,29.20
2023-05-14T13:43:43.604Z,28.89
2023-05-14T13:44:46.323Z,28.48
2023-05-14T13:45:50.144Z,28.15